Time;durP1;ratioP1;P1;durP2;ratioP2;P2;SDS_P1;SDS_P2;PMS_P1;PMS_P2;Temp;Humidity;BMP_temperature;BMP_pressure;BME280_temperature;BME280_humidity;BME280_pressure;Samples;Min_cycle;Max_cycle;Signal;HPM_P1;HPM_P2
2022/06/12 00:00:47;;;;;;;1.85;0.90;;;22.20;50.70;;;;;;4937522;29;20110;-82
2022/06/12 00:03:15;;;;;;;0.90;0.88;;;22.20;50.80;;;;;;4936160;29;20062;-82
2022/06/12 00:05:44;;;;;;;1.15;1.00;;;22.10;50.80;;;;;;4937901;29;20532;-82
2022/06/12 00:08:11;;;;;;;1.50;1.10;;;22.10;50.80;;;;;;4936375;29;20047;-82
2022/06/12 00:10:39;;;;;;;0.95;0.80;;;22.10;50.90;;;;;;4936946;29;20456;-82
2022/06/12 00:13:07;;;;;;;1.58;1.17;;;22.00;50.90;;;;;;4937732;29;20055;-82
2022/06/12 00:15:34;;;;;;;1.85;1.05;;;22.00;50.90;;;;;;4936746;29;20087;-82
2022/06/12 00:18:00;;;;;;;0.88;0.77;;;21.90;50.90;;;;;;4937153;29;20110;-82
2022/06/12 00:20:27;;;;;;;2.50;0.90;;;21.90;51.00;;;;;;4936170;29;20479;-81
2022/06/12 00:22:54;;;;;;;1.45;1.00;;;21.90;51.10;;;;;;4920982;29;20083;-82
2022/06/12 00:25:23;;;;;;;1.48;0.93;;;21.80;51.10;;;;;;4952594;29;20036;-82
2022/06/12 00:27:48;;;;;;;1.38;0.93;;;21.80;51.10;;;;;;4935792;29;20032;-82
2022/06/12 00:30:19;;;;;;;0.98;0.82;;;21.80;51.10;;;;;;4936992;29;20475;-82
2022/06/12 00:32:49;;;;;;;1.88;1.20;;;21.70;51.20;;;;;;4936783;29;20028;-82
2022/06/12 00:35:17;;;;;;;1.83;1.00;;;21.70;51.20;;;;;;4951782;29;20024;-81
2022/06/12 00:37:43;;;;;;;3.45;1.40;;;21.60;51.20;;;;;;4935840;29;20024;-81
2022/06/12 00:40:09;;;;;;;1.75;0.90;;;21.60;51.30;;;;;;4920239;29;20189;-82
2022/06/12 00:42:39;;;;;;;2.13;1.08;;;21.60;51.30;;;;;;4951553;29;20477;-82
2022/06/12 00:45:33;;;;;;;2.55;1.10;;;21.50;51.30;;;;;;4936175;29;20027;-82
2022/06/12 00:48:01;;;;;;;1.33;0.88;;;21.50;51.60;;;;;;4951478;29;20504;-82
2022/06/12 00:50:29;;;;;;;2.22;1.15;;;21.50;51.50;;;;;;4935862;29;20043;-82
2022/06/12 00:52:56;;;;;;;1.65;1.10;;;21.40;51.50;;;;;;4951681;29;20127;-81
2022/06/12 00:55:45;;;;;;;2.45;1.25;;;21.40;51.60;;;;;;4935602;29;20016;-82
2022/06/12 00:58:17;;;;;;;2.53;1.13;;;21.30;51.70;;;;;;4935107;29;20106;-82
2022/06/12 01:00:44;;;;;;;2.05;1.27;;;21.30;51.60;;;;;;4936434;29;20457;-82
2022/06/12 01:03:10;;;;;;;1.42;1.05;;;21.20;51.60;;;;;;4935164;29;20057;-82
2022/06/12 01:08:22;;;;;;;1.70;0.82;;;21.20;51.80;;;;;;4936903;29;20036;-82
2022/06/12 01:10:52;;;;;;;2.05;1.10;;;21.10;51.80;;;;;;4935175;29;20035;-82
2022/06/12 01:13:45;;;;;;;2.20;1.17;;;21.10;51.90;;;;;;4936455;29;20090;-82
2022/06/12 01:16:17;;;;;;;1.20;0.95;;;21.10;52.10;;;;;;4934899;28;20036;-82
2022/06/12 01:18:51;;;;;;;2.42;1.08;;;21.10;52.00;;;;;;4920541;29;20066;-82
2022/06/12 01:21:34;;;;;;;2.13;1.10;;;21.00;52.00;;;;;;4951231;29;20035;-82
2022/06/12 01:24:30;;;;;;;2.45;1.05;;;20.90;52.10;;;;;;4936036;29;20031;-82
2022/06/12 01:27:22;;;;;;;3.25;1.15;;;20.90;52.20;;;;;;4936431;29;20111;-82
2022/06/12 01:29:55;;;;;;;1.70;0.98;;;20.90;52.30;;;;;;4897435;29;20038;-82
2022/06/12 01:32:39;;;;;;;2.83;1.40;;;20.80;52.20;;;;;;4934839;29;20150;-82
2022/06/12 01:35:25;;;;;;;1.15;0.98;;;20.80;52.30;;;;;;4951325;29;20453;-82
2022/06/12 01:38:02;;;;;;;1.95;1.20;;;20.70;52.40;;;;;;4936752;29;20471;-83
2022/06/12 01:41:06;;;;;;;2.60;1.23;;;20.70;52.40;;;;;;4935332;29;20074;-82
2022/06/12 01:43:51;;;;;;;1.85;1.10;;;20.60;52.50;;;;;;4897484;29;20044;-82
2022/06/12 01:46:21;;;;;;;1.42;1.08;;;20.60;52.60;;;;;;4951259;29;20028;-82
2022/06/12 01:48:46;;;;;;;1.90;1.08;;;20.60;52.50;;;;;;4953045;28;20024;-82
2022/06/12 01:51:25;;;;;;;2.08;1.20;;;20.50;52.50;;;;;;4954925;29;20082;-81
2022/06/12 01:54:15;;;;;;;1.75;1.02;;;20.50;52.70;;;;;;4940463;29;20031;-82
2022/06/12 01:56:53;;;;;;;1.48;1.00;;;20.50;52.80;;;;;;4938238;29;20058;-82
2022/06/12 01:59:31;;;;;;;1.38;0.90;;;20.40;52.70;;;;;;4940213;29;20035;-83
2022/06/12 02:02:20;;;;;;;1.88;1.10;;;20.40;52.80;;;;;;4939008;29;20345;-82
2022/06/12 02:05:08;;;;;;;2.13;1.10;;;20.30;52.70;;;;;;4922820;29;20115;-82
2022/06/12 02:07:43;;;;;;;3.55;1.15;;;20.30;52.80;;;;;;4938824;29;20019;-82
2022/06/12 02:10:20;;;;;;;1.73;1.20;;;20.30;52.90;;;;;;4939708;29;20453;-82
2022/06/12 02:13:11;;;;;;;1.85;1.10;;;20.30;53.00;;;;;;4938965;29;20032;-82
2022/06/12 02:15:56;;;;;;;2.28;1.27;;;20.20;52.90;;;;;;4938333;29;20520;-82
2022/06/12 02:18:43;;;;;;;2.05;1.30;;;20.20;53.00;;;;;;4938985;29;20023;-82
2022/06/12 02:21:27;;;;;;;3.13;1.30;;;20.10;53.10;;;;;;4940722;29;20037;-82
2022/06/12 02:23:59;;;;;;;1.90;1.02;;;20.10;53.00;;;;;;4940656;29;20055;-82
2022/06/12 02:26:37;;;;;;;1.80;1.10;;;20.10;53.10;;;;;;4939573;29;20035;-83
2022/06/12 02:29:20;;;;;;;2.50;1.10;;;20.10;53.20;;;;;;4942922;29;20027;-82
2022/06/12 02:31:49;;;;;;;3.65;1.00;;;20.00;53.30;;;;;;4942363;29;20507;-82
2022/06/12 02:34:25;;;;;;;2.53;1.02;;;20.00;53.30;;;;;;4945113;28;20484;-82
2022/06/12 02:36:57;;;;;;;2.20;1.10;;;19.90;53.30;;;;;;4944862;29;20028;-81
2022/06/12 02:39:32;;;;;;;2.53;1.10;;;19.90;53.30;;;;;;4944749;29;20023;-83
2022/06/12 02:41:59;;;;;;;2.75;1.20;;;19.90;53.40;;;;;;4943273;29;20028;-82
2022/06/12 02:44:43;;;;;;;2.72;1.38;;;19.90;53.40;;;;;;4940604;28;20015;-83
2022/06/12 02:47:20;;;;;;;1.70;1.10;;;19.80;53.50;;;;;;4954859;29;20028;-82
2022/06/12 02:49:48;;;;;;;1.52;1.02;;;19.80;53.40;;;;;;4939399;29;20441;-83
2022/06/12 02:52:36;;;;;;;2.00;1.25;;;19.70;53.40;;;;;;4922333;29;20038;-83
2022/06/12 02:55:34;;;;;;;2.10;1.10;;;19.70;53.50;;;;;;4939085;29;20084;-82
2022/06/12 02:58:16;;;;;;;2.13;1.10;;;19.70;53.60;;;;;;4954140;29;20034;-82
2022/06/12 03:01:05;;;;;;;2.53;1.15;;;19.60;53.60;;;;;;4937920;29;20083;-82
2022/06/12 03:03:39;;;;;;;2.22;1.23;;;19.60;53.70;;;;;;4937890;29;20027;-82
2022/06/12 03:06:05;;;;;;;2.37;1.23;;;19.60;53.70;;;;;;4954333;29;20123;-83
2022/06/12 03:08:44;;;;;;;2.13;1.20;;;19.60;54.40;;;;;;4906283;29;20437;-82
2022/06/12 03:11:23;;;;;;;2.55;1.30;;;19.50;53.80;;;;;;4937715;29;20031;-82
2022/06/12 03:13:51;;;;;;;1.20;1.00;;;19.50;53.90;;;;;;4921703;29;20042;-84
2022/06/12 03:16:23;;;;;;;2.45;1.10;;;19.50;53.80;;;;;;4921927;29;20028;-83
2022/06/12 03:19:10;;;;;;;2.17;1.10;;;19.40;53.80;;;;;;4940156;29;20038;-84
2022/06/12 03:22:05;;;;;;;2.22;1.38;;;19.40;54.00;;;;;;4938380;29;20434;-82
2022/06/12 03:24:36;;;;;;;;;;;19.40;54.00;;;;;;4933913;29;20541;-83
2022/06/12 03:27:40;;;;;;;1.85;1.30;;;19.30;53.80;;;;;;4939108;29;19957;-83
2022/06/12 03:30:16;;;;;;;2.05;1.25;;;19.30;54.00;;;;;;4875394;29;20039;-84
2022/06/12 03:32:51;;;;;;;2.17;1.10;;;19.20;54.00;;;;;;4939470;29;20476;-82
2022/06/12 03:35:26;;;;;;;2.30;1.27;;;19.20;54.10;;;;;;4937797;29;20342;-82
2022/06/12 03:38:14;;;;;;;1.27;1.10;;;19.20;54.20;;;;;;4953732;29;20367;-82
2022/06/12 03:41:13;;;;;;;2.67;1.10;;;19.10;54.30;;;;;;4937275;29;20036;-82
2022/06/12 03:43:52;;;;;;;1.65;1.10;;;19.10;54.30;;;;;;4936731;29;20087;-82
2022/06/12 03:46:21;;;;;;;2.47;1.13;;;19.10;54.30;;;;;;4938846;29;20032;-82
2022/06/12 03:48:54;;;;;;;1.05;0.95;;;19.10;54.40;;;;;;4938343;29;20078;-82
2022/06/12 03:51:40;;;;;;;2.50;1.20;;;19.00;54.40;;;;;;4952845;29;20028;-83
2022/06/12 03:54:13;;;;;;;2.17;1.20;;;19.00;54.50;;;;;;4936329;29;20035;-83
2022/06/12 04:00:36;;;;;;;1.35;0.90;;;18.90;54.60;;;;;;4937723;29;20517;-83
2022/06/12 04:03:29;;;;;;;1.45;1.10;;;18.90;54.70;;;;;;4928627;28;20036;-82
2022/06/12 04:05:59;;;;;;;1.38;1.20;;;18.80;54.70;;;;;;4937138;29;20464;-83
2022/06/12 04:08:32;;;;;;;1.55;1.10;;;18.80;54.80;;;;;;4937331;29;20034;-82
2022/06/12 04:10:58;;;;;;;2.08;1.33;;;18.80;54.90;;;;;;4935734;29;20038;-83
2022/06/12 04:13:24;;;;;;;1.85;1.13;;;18.80;54.90;;;;;;4937149;29;20034;-80
2022/06/12 04:15:58;;;;;;;2.08;1.13;;;18.80;55.00;;;;;;4904762;29;20032;-79
2022/06/12 04:18:26;;;;;;;2.17;1.17;;;18.70;55.00;;;;;;4935879;29;20066;-79
2022/06/12 04:21:00;;;;;;;2.15;1.13;;;18.70;55.00;;;;;;4936997;29;20365;-80
2022/06/12 04:23:45;;;;;;;1.23;0.90;;;18.70;55.10;;;;;;4935690;29;20027;-80
2022/06/12 04:26:38;;;;;;;1.60;1.20;;;18.70;55.30;;;;;;4936351;29;20043;-80
2022/06/12 04:29:10;;;;;;;1.75;1.00;;;18.70;55.30;;;;;;4935769;29;20377;-82
2022/06/12 04:31:36;;;;;;;1.42;1.02;;;18.70;55.30;;;;;;4935856;29;20047;-82
2022/06/12 04:34:16;;;;;;;2.55;1.30;;;18.60;55.30;;;;;;4904666;29;20032;-82
2022/06/12 04:36:45;;;;;;;2.88;1.40;;;18.60;55.40;;;;;;4936054;29;20523;-82
2022/06/12 04:39:13;;;;;;;2.42;1.10;;;18.60;55.40;;;;;;4951915;29;20027;-82
2022/06/12 04:41:39;;;;;;;3.00;1.27;;;18.60;55.50;;;;;;4920754;29;20126;-81
2022/06/12 04:44:07;;;;;;;1.77;1.35;;;18.60;55.50;;;;;;4937178;29;20110;-82
2022/06/12 04:46:34;;;;;;;1.20;1.02;;;18.60;55.60;;;;;;4920442;29;20024;-81
2022/06/12 04:49:00;;;;;;;2.10;1.13;;;18.50;55.60;;;;;;4936070;29;20023;-81
2022/06/12 04:51:27;;;;;;;3.03;1.30;;;18.60;55.60;;;;;;4919749;29;20496;-82
2022/06/12 04:53:54;;;;;;;2.25;1.30;;;18.60;55.70;;;;;;4935478;29;20461;-81
2022/06/12 04:56:22;;;;;;;1.98;1.30;;;18.60;55.70;;;;;;4919658;29;20110;-82
2022/06/12 04:58:48;;;;;;;2.65;1.50;;;18.50;55.70;;;;;;4919641;29;20024;-82
2022/06/12 05:01:14;;;;;;;1.92;1.30;;;18.60;55.80;;;;;;4952115;29;20087;-81
2022/06/12 05:03:41;;;;;;;2.63;1.27;;;18.50;55.80;;;;;;4920200;29;20080;-82
2022/06/12 05:06:07;;;;;;;3.63;1.45;;;18.50;55.80;;;;;;4904368;29;20099;-82
2022/06/12 05:08:34;;;;;;;3.45;1.38;;;18.50;55.90;;;;;;4936364;29;20118;-81
2022/06/12 05:11:00;;;;;;;2.63;1.30;;;18.50;55.90;;;;;;4919515;29;20028;-82
2022/06/12 05:13:26;;;;;;;3.10;1.10;;;18.50;55.90;;;;;;4935746;29;20059;-82
2022/06/12 05:15:52;;;;;;;2.60;1.58;;;18.50;56.00;;;;;;4919486;29;20015;-82
2022/06/12 05:18:20;;;;;;;2.13;1.30;;;18.50;56.00;;;;;;4919942;29;20020;-82
2022/06/12 05:20:46;;;;;;;1.98;1.20;;;18.40;56.00;;;;;;4919929;29;20023;-82
2022/06/12 05:23:12;;;;;;;2.17;1.20;;;18.50;56.10;;;;;;4906138;29;20036;-82
2022/06/12 05:25:39;;;;;;;1.40;1.10;;;18.50;56.20;;;;;;4939338;29;20024;-82
2022/06/12 05:28:06;;;;;;;1.77;0.90;;;18.50;56.20;;;;;;4939144;29;20027;-82
2022/06/12 05:30:33;;;;;;;2.20;1.30;;;18.50;56.20;;;;;;4940029;29;20052;-82
2022/06/12 05:33:00;;;;;;;1.58;1.15;;;18.50;56.90;;;;;;4955070;29;20045;-82
2022/06/12 05:35:28;;;;;;;1.85;1.17;;;18.50;56.30;;;;;;4955418;28;20042;-83
2022/06/12 05:37:54;;;;;;;1.98;1.20;;;18.50;56.30;;;;;;4941097;29;20023;-83
2022/06/12 05:40:25;;;;;;;2.17;1.15;;;18.50;56.30;;;;;;4940215;29;20119;-82
2022/06/12 05:42:51;;;;;;;2.65;1.30;;;18.50;56.40;;;;;;4924050;29;20448;-82
2022/06/12 05:45:21;;;;;;;1.83;1.35;;;18.50;56.40;;;;;;4939911;29;20031;-81
2022/06/12 05:47:48;;;;;;;2.85;1.35;;;18.50;56.50;;;;;;4938818;29;20024;-83
2022/06/12 05:50:15;;;;;;;2.58;1.30;;;18.50;56.40;;;;;;4939274;29;20020;-83
2022/06/12 05:52:41;;;;;;;2.67;1.20;;;18.50;56.50;;;;;;4939662;29;20031;-83
2022/06/12 05:55:08;;;;;;;2.67;1.40;;;18.50;56.50;;;;;;4923119;29;20074;-83
2022/06/12 05:57:33;;;;;;;2.90;1.30;;;18.50;56.60;;;;;;4939261;29;20449;-84
2022/06/12 05:59:59;;;;;;;1.90;1.23;;;18.50;56.60;;;;;;4923419;29;20028;-86
2022/06/12 06:02:25;;;;;;;1.77;1.13;;;18.50;56.60;;;;;;4939282;29;20042;-85
2022/06/12 06:04:51;;;;;;;1.50;1.10;;;18.50;56.60;;;;;;4923196;29;20039;-83
2022/06/12 06:07:16;;;;;;;2.88;1.27;;;18.50;56.60;;;;;;4923518;29;20043;-84
2022/06/12 06:09:42;;;;;;;2.25;1.30;;;18.50;56.60;;;;;;4938776;29;20035;-83
2022/06/12 06:12:08;;;;;;;1.70;1.13;;;18.50;56.60;;;;;;4938813;29;20042;-83
2022/06/12 06:14:34;;;;;;;1.80;1.25;;;18.50;56.60;;;;;;4939249;29;20114;-83
2022/06/12 06:17:00;;;;;;;2.25;1.35;;;18.50;56.60;;;;;;4922207;29;20122;-83
2022/06/12 06:19:26;;;;;;;2.25;1.15;;;18.50;56.60;;;;;;4938619;29;20019;-84
2022/06/12 06:21:51;;;;;;;3.00;1.30;;;18.50;56.70;;;;;;4939272;29;20028;-84
2022/06/12 06:24:17;;;;;;;2.45;1.30;;;18.60;56.80;;;;;;4922574;29;20547;-84
2022/06/12 06:26:44;;;;;;;2.80;1.35;;;18.50;56.70;;;;;;4938558;29;20445;-84
2022/06/12 06:29:10;;;;;;;3.17;1.20;;;18.60;56.80;;;;;;4939639;28;20052;-83
2022/06/12 06:31:37;;;;;;;2.28;1.33;;;18.60;56.80;;;;;;4938315;29;20079;-82
2022/06/12 06:34:03;;;;;;;2.67;1.50;;;18.60;56.80;;;;;;4938510;29;20023;-83
2022/06/12 06:36:29;;;;;;;3.55;1.55;;;18.60;56.80;;;;;;4907239;29;20043;-83
2022/06/12 06:38:56;;;;;;;3.08;1.63;;;18.60;56.80;;;;;;4938529;29;20032;-83
2022/06/12 06:41:23;;;;;;;2.40;1.20;;;18.60;56.90;;;;;;4938407;29;20122;-83
2022/06/12 06:46:35;;;;;;;3.40;1.20;;;18.70;56.90;;;;;;4939394;29;20524;-83
2022/06/12 06:49:01;;;;;;;2.22;1.27;;;18.70;56.90;;;;;;4939848;29;20102;-82
2022/06/12 06:51:27;;;;;;;2.42;1.42;;;18.70;56.90;;;;;;4923592;29;20119;-83
2022/06/12 06:53:53;;;;;;;1.52;1.00;;;18.70;56.90;;;;;;4939914;29;20435;-84
2022/06/12 06:56:20;;;;;;;3.58;1.77;;;18.80;57.00;;;;;;4941348;29;20059;-83
2022/06/12 06:58:46;;;;;;;3.15;1.40;;;18.70;56.90;;;;;;4928862;29;20024;-83
2022/06/12 07:01:12;;;;;;;2.95;1.30;;;18.80;57.10;;;;;;4929041;29;20024;-83
2022/06/12 07:03:37;;;;;;;2.60;1.35;;;18.80;57.10;;;;;;4946889;29;20115;-85
2022/06/12 07:06:03;;;;;;;2.13;1.27;;;18.80;57.10;;;;;;4930333;29;20060;-84
2022/06/12 07:08:30;;;;;;;3.85;1.48;;;18.80;57.00;;;;;;4945368;29;20034;-84
2022/06/12 07:10:57;;;;;;;3.28;1.60;;;18.80;57.10;;;;;;4930918;29;20536;-84
2022/06/12 07:13:24;;;;;;;2.17;1.40;;;18.90;57.10;;;;;;4943377;28;20031;-84
2022/06/12 07:15:50;;;;;;;3.05;1.52;;;18.90;57.20;;;;;;4924100;29;20032;-84
2022/06/12 07:18:18;;;;;;;3.03;1.45;;;18.90;57.10;;;;;;4923039;29;20023;-83
2022/06/12 07:20:53;;;;;;;3.35;1.65;;;18.90;57.10;;;;;;4938333;29;20170;-83
2022/06/12 07:23:22;;;;;;;3.30;1.50;;;19.00;57.50;;;;;;4954353;29;20042;-83
2022/06/12 07:25:52;;;;;;;2.55;1.30;;;19.00;57.20;;;;;;4938176;29;20028;-84
2022/06/12 07:28:18;;;;;;;2.65;1.20;;;19.00;57.10;;;;;;4938860;29;20039;-85
2022/06/12 07:30:45;;;;;;;2.42;1.30;;;19.00;57.10;;;;;;4921784;29;20091;-84
2022/06/12 07:33:11;;;;;;;2.85;1.52;;;19.10;57.10;;;;;;4938623;29;20492;-85
2022/06/12 07:35:40;;;;;;;2.40;1.42;;;19.10;57.10;;;;;;4938177;29;20040;-83
2022/06/12 07:38:06;;;;;;;2.40;1.40;;;19.20;57.10;;;;;;4938748;29;20055;-83
2022/06/12 07:40:36;;;;;;;2.55;1.40;;;19.20;57.00;;;;;;4936642;29;20024;-84
2022/06/12 07:43:03;;;;;;;3.40;1.40;;;19.30;57.00;;;;;;4937449;29;20035;-84
2022/06/12 07:45:30;;;;;;;2.65;1.33;;;19.40;56.90;;;;;;4920175;29;20461;-78
2022/06/12 07:47:57;;;;;;;3.00;1.48;;;19.40;56.90;;;;;;4951896;29;20134;-75
2022/06/12 07:50:22;;;;;;;6.65;2.15;;;19.50;57.60;;;;;;4935788;29;20059;-77
2022/06/12 07:52:48;;;;;;;4.72;2.33;;;19.60;58.40;;;;;;4920781;29;20094;-76
2022/06/12 07:55:17;;;;;;;5.22;1.83;;;19.60;59.00;;;;;;4935942;29;20365;-76
2022/06/12 07:57:44;;;;;;;5.65;2.13;;;19.70;59.50;;;;;;4935425;29;20035;-77
2022/06/12 08:00:13;;;;;;;4.15;1.90;;;19.80;59.80;;;;;;4937098;29;20445;-76
2022/06/12 08:02:40;;;;;;;5.80;2.13;;;19.90;59.90;;;;;;4935805;29;20504;-76
2022/06/12 08:05:07;;;;;;;3.45;1.45;;;20.10;60.10;;;;;;4951509;28;20046;-78
2022/06/12 08:07:34;;;;;;;4.18;1.70;;;20.10;60.10;;;;;;4952310;29;20035;-77
2022/06/12 08:10:00;;;;;;;5.13;1.80;;;20.20;60.10;;;;;;4936429;29;20039;-76
2022/06/12 08:12:26;;;;;;;3.70;1.92;;;20.30;60.00;;;;;;4936869;29;20469;-76
2022/06/12 08:14:54;;;;;;;5.93;2.15;;;20.40;59.90;;;;;;4935090;29;20038;-77
2022/06/12 08:17:21;;;;;;;5.45;2.03;;;20.50;60.00;;;;;;4935513;29;20373;-75
2022/06/12 08:22:32;;;;;;;5.47;2.05;;;20.60;60.30;;;;;;4922499;29;20044;-75
2022/06/12 08:24:57;;;;;;;4.53;1.73;;;20.80;59.60;;;;;;4935371;29;20364;-75
2022/06/12 08:27:23;;;;;;;5.18;1.95;;;20.80;59.50;;;;;;4919414;29;20024;-75
2022/06/12 08:29:49;;;;;;;4.00;1.95;;;20.90;59.40;;;;;;4919277;29;20028;-76
2022/06/12 08:32:19;;;;;;;4.35;1.70;;;21.00;59.40;;;;;;4919119;29;20477;-78
2022/06/12 08:34:51;;;;;;;4.53;2.08;;;21.10;59.50;;;;;;4936287;29;20095;-75
2022/06/12 08:37:21;;;;;;;4.65;1.92;;;21.20;59.60;;;;;;4950860;29;20042;-76
2022/06/12 08:39:48;;;;;;;5.20;1.77;;;21.20;59.50;;;;;;4936182;29;20119;-76
2022/06/12 08:42:24;;;;;;;3.83;1.73;;;21.30;59.40;;;;;;4919930;29;20032;-77
2022/06/12 08:44:53;;;;;;;3.97;1.85;;;21.40;59.40;;;;;;4950885;29;20046;-76
2022/06/12 08:47:44;;;;;;;5.05;1.92;;;21.50;59.30;;;;;;4935848;29;20020;-75
2022/06/12 08:50:15;;;;;;;4.38;1.83;;;21.60;59.30;;;;;;4935979;29;20382;-75
2022/06/12 08:52:45;;;;;;;3.88;1.65;;;21.70;59.00;;;;;;4918921;29;20039;-79
2022/06/12 08:55:34;;;;;;;4.43;1.75;;;21.80;58.80;;;;;;4950419;29;20023;-74
2022/06/12 08:58:36;;;;;;;3.28;1.50;;;21.80;58.80;;;;;;4935606;29;20503;-77
2022/06/12 09:01:03;;;;;;;4.60;1.67;;;21.90;58.50;;;;;;4950343;29;20500;-79
2022/06/12 09:03:39;;;;;;;4.50;1.65;;;22.00;58.20;;;;;;4919321;29;20036;-76
2022/06/12 09:06:07;;;;;;;3.75;1.65;;;22.10;58.10;;;;;;4951133;28;20126;-77
2022/06/12 09:09:03;;;;;;;3.97;1.60;;;22.20;57.90;;;;;;4935758;29;20027;-84
2022/06/12 09:11:43;;;;;;;3.13;1.75;;;22.20;57.80;;;;;;4951202;29;20023;-75
2022/06/12 09:14:24;;;;;;;4.88;1.80;;;22.30;57.70;;;;;;4934417;29;20036;-77
2022/06/12 09:17:08;;;;;;;3.40;1.70;;;22.50;57.70;;;;;;4935098;29;20039;-77
2022/06/12 09:20:08;;;;;;;3.03;1.52;;;22.50;57.50;;;;;;4953333;29;20028;-94
2022/06/12 09:23:01;;;;;;;3.03;1.27;;;22.60;57.30;;;;;;4937427;29;20036;-92
2022/06/12 09:25:30;;;;;;;4.45;1.50;;;22.70;57.10;;;;;;4936727;29;20039;-94
2022/06/12 09:28:13;;;;;;;4.10;1.38;;;22.80;56.80;;;;;;4937806;29;20028;-89
2022/06/12 09:30:51;;;;;;;3.90;1.63;;;22.90;56.50;;;;;;4938454;29;20047;-90
2022/06/12 09:33:32;;;;;;;3.00;1.30;;;23.00;56.20;;;;;;4952451;29;20023;-87
2022/06/12 09:36:24;;;;;;;4.38;1.70;;;23.10;56.00;;;;;;4952091;29;20028;-89
2022/06/12 09:39:06;;;;;;;2.78;1.20;;;23.10;55.70;;;;;;4952581;29;20456;-85
2022/06/12 09:41:50;;;;;;;3.15;1.40;;;23.20;55.40;;;;;;4935903;29;20032;-86
2022/06/12 09:44:25;;;;;;;3.53;1.40;;;23.30;55.30;;;;;;4951364;29;20031;-85
2022/06/12 09:47:03;;;;;;;3.63;1.75;;;23.40;55.10;;;;;;4935119;29;20111;-85
2022/06/12 09:49:31;;;;;;;3.42;1.50;;;23.50;54.80;;;;;;4951905;29;20118;-85
2022/06/12 09:52:06;;;;;;;2.47;1.15;;;23.60;54.40;;;;;;4937105;29;20095;-84
2022/06/12 09:55:05;;;;;;;2.85;1.60;;;23.70;54.20;;;;;;4937083;29;20036;-89
2022/06/12 09:57:48;;;;;;;3.30;1.13;;;23.80;54.00;;;;;;4936853;29;20036;-86
2022/06/12 10:00:42;;;;;;;4.22;1.48;;;23.80;53.50;;;;;;4939159;29;20028;-87
2022/06/12 10:03:10;;;;;;;3.28;1.58;;;23.90;53.40;;;;;;4952867;29;20042;-91
2022/06/12 10:05:40;;;;;;;3.40;1.35;;;24.00;53.10;;;;;;4951908;29;20080;-85
2022/06/12 10:08:49;;;;;;;2.72;1.30;;;24.10;52.90;;;;;;4951910;29;20030;-92
2022/06/12 10:11:23;;;;;;;3.92;1.70;;;24.10;52.80;;;;;;4933350;29;20042;-81
2022/06/12 10:13:59;;;;;;;3.70;1.27;;;24.20;52.50;;;;;;4942206;29;20046;-83
2022/06/12 10:16:39;;;;;;;2.35;1.30;;;24.30;52.50;;;;;;4924730;29;20030;-82
2022/06/12 10:19:28;;;;;;;2.58;1.40;;;24.30;52.40;;;;;;4954276;29;20095;-81
2022/06/12 10:21:58;;;;;;;2.92;1.60;;;24.40;52.40;;;;;;4939590;29;20063;-84
2022/06/12 10:24:24;;;;;;;3.88;1.77;;;24.40;52.10;;;;;;4938112;29;20035;-83
2022/06/12 10:27:00;;;;;;;4.32;1.50;;;24.50;52.20;;;;;;4921708;29;20387;-83
2022/06/12 10:29:39;;;;;;;3.38;1.50;;;24.60;52.10;;;;;;4937663;29;20071;-83
2022/06/12 10:32:10;;;;;;;3.88;1.50;;;24.60;51.90;;;;;;4953707;29;20050;-89
2022/06/12 10:34:36;;;;;;;3.45;1.60;;;24.70;51.90;;;;;;4954295;29;20032;-85
2022/06/12 10:37:23;;;;;;;2.42;1.25;;;24.80;51.80;;;;;;4922245;29;20501;-84
2022/06/12 10:40:16;;;;;;;3.25;1.63;;;24.80;51.70;;;;;;4938708;29;20123;-81
2022/06/12 10:42:42;;;;;;;4.32;1.52;;;24.90;51.60;;;;;;4937977;29;20083;-80
2022/06/12 10:45:25;;;;;;;2.88;1.58;;;24.90;51.50;;;;;;4954121;29;20456;-82
2022/06/12 10:47:55;;;;;;;4.70;1.67;;;25.00;51.40;;;;;;4937954;29;20030;-82
2022/06/12 10:50:30;;;;;;;3.63;1.60;;;25.10;51.20;;;;;;4937870;29;20039;-82
2022/06/12 10:53:08;;;;;;;3.90;1.58;;;25.10;51.10;;;;;;4937421;29;20035;-81
2022/06/12 10:55:53;;;;;;;3.03;1.50;;;25.20;51.10;;;;;;4937589;29;20123;-81
2022/06/12 10:58:57;;;;;;;4.47;1.63;;;25.20;51.10;;;;;;4938369;29;20480;-81
2022/06/12 11:01:34;;;;;;;3.50;1.60;;;25.30;51.00;;;;;;4953983;29;20024;-82
2022/06/12 11:04:21;;;;;;;4.47;1.63;;;25.40;50.90;;;;;;4937899;29;20102;-88
2022/06/12 11:07:11;;;;;;;3.30;1.40;;;25.40;50.90;;;;;;4939231;29;20028;-84
2022/06/12 11:09:53;;;;;;;3.80;1.30;;;25.40;50.80;;;;;;4938451;29;20107;-80
2022/06/12 11:12:43;;;;;;;4.00;1.90;;;25.50;50.40;;;;;;4938283;29;20106;-80
2022/06/12 11:15:12;;;;;;;1.95;1.25;;;25.50;50.30;;;;;;4937822;29;20023;-84
2022/06/12 11:18:08;;;;;;;2.60;1.25;;;25.60;50.10;;;;;;4938213;29;20114;-81
2022/06/12 11:20:37;;;;;;;2.65;1.40;;;25.60;50.10;;;;;;4954980;28;20024;-80
2022/06/12 11:23:11;;;;;;;3.00;1.40;;;25.60;49.90;;;;;;4941903;29;20055;-83
2022/06/12 11:26:13;;;;;;;3.47;1.45;;;25.70;49.90;;;;;;4942898;29;20032;-85
2022/06/12 11:28:57;;;;;;;3.88;1.40;;;25.70;49.80;;;;;;4945039;29;20038;-82
2022/06/12 11:32:02;;;;;;;3.95;1.58;;;25.70;49.70;;;;;;4968942;29;20047;-81
2022/06/12 11:34:39;;;;;;;4.80;1.60;;;25.70;49.70;;;;;;4955153;29;20012;-84
2022/06/12 11:37:23;;;;;;;2.75;1.30;;;25.80;49.60;;;;;;4948218;29;20040;-80
2022/06/12 11:39:55;;;;;;;3.78;1.40;;;25.80;49.50;;;;;;4961364;29;20049;-87
2022/06/12 11:42:30;;;;;;;2.45;1.15;;;25.80;49.30;;;;;;4955642;29;20028;-84
2022/06/12 11:45:12;;;;;;;3.45;1.40;;;25.80;49.10;;;;;;4953638;29;20052;-83
2022/06/12 11:47:44;;;;;;;2.15;1.10;;;25.80;49.00;;;;;;4939301;29;20027;-84
2022/06/12 11:50:44;;;;;;;3.08;1.38;;;25.80;49.00;;;;;;4939098;29;20068;-85
2022/06/12 11:53:38;;;;;;;3.30;1.45;;;25.80;49.00;;;;;;4937465;29;20074;-86
2022/06/12 11:56:16;;;;;;;3.42;1.27;;;25.80;48.80;;;;;;4937626;29;20114;-81
2022/06/12 11:59:00;;;;;;;2.72;1.30;;;25.80;48.60;;;;;;4938119;29;20095;-82
2022/06/12 12:01:48;;;;;;;3.70;1.60;;;25.80;48.60;;;;;;4938494;29;20032;-81
2022/06/12 12:04:32;;;;;;;3.08;1.27;;;25.80;48.60;;;;;;4937428;28;20027;-83
2022/06/12 12:07:11;;;;;;;3.22;1.27;;;25.80;48.60;;;;;;4952189;29;20036;-85
2022/06/12 12:09:57;;;;;;;2.05;1.13;;;25.80;48.50;;;;;;4938047;29;20449;-83
2022/06/12 12:12:29;;;;;;;4.70;1.50;;;25.80;48.30;;;;;;4937019;29;20024;-84
2022/06/12 12:14:59;;;;;;;1.83;1.20;;;25.80;48.10;;;;;;4937656;29;20449;-83
2022/06/12 12:17:31;;;;;;;2.67;1.40;;;25.80;48.10;;;;;;4936867;29;20042;-85
2022/06/12 12:20:11;;;;;;;3.95;1.35;;;25.80;48.00;;;;;;4953195;29;20083;-85
2022/06/12 12:22:56;;;;;;;3.40;1.20;;;25.80;48.00;;;;;;4937837;29;20134;-85
2022/06/12 12:26:03;;;;;;;4.10;1.50;;;25.80;47.80;;;;;;4938205;29;20083;-81
2022/06/12 12:28:41;;;;;;;3.13;1.20;;;25.80;47.80;;;;;;4897768;29;20101;-85
2022/06/12 12:31:12;;;;;;;2.90;1.33;;;25.80;47.90;;;;;;4882006;29;20056;-86
2022/06/12 12:33:41;;;;;;;3.10;1.50;;;25.80;47.70;;;;;;4911326;29;20134;-84
2022/06/12 12:41:55;;;;;;;1.95;1.10;;;25.90;47.70;;;;;;4951652;29;20500;-83
2022/06/12 12:44:34;;;;;;;3.47;1.30;;;25.80;47.60;;;;;;4935701;29;20122;-80
2022/06/12 12:47:01;;;;;;;1.80;1.10;;;25.80;47.40;;;;;;4951779;28;20035;-79
2022/06/12 12:49:33;;;;;;;2.60;1.05;;;25.90;47.10;;;;;;4935504;29;20476;-80
2022/06/12 12:52:16;;;;;;;1.85;1.17;;;25.80;46.90;;;;;;4935103;29;20034;-81
2022/06/12 12:54:47;;;;;;;2.08;0.90;;;25.80;47.10;;;;;;4936728;29;20043;-79
2022/06/12 12:57:18;;;;;;;1.38;1.00;;;25.80;47.00;;;;;;4935867;29;20028;-79
2022/06/12 12:59:51;;;;;;;2.33;1.30;;;25.80;46.80;;;;;;4935491;29;20032;-80
2022/06/12 13:02:30;;;;;;;2.72;1.00;;;25.80;46.80;;;;;;4934766;29;20034;-79
2022/06/12 13:05:21;;;;;;;3.83;1.20;;;25.80;46.70;;;;;;4935684;29;20055;-81
2022/06/12 13:08:15;;;;;;;1.27;0.80;;;25.80;46.50;;;;;;4935993;29;20054;-81
2022/06/12 13:11:19;;;;;;;3.15;0.95;;;25.80;46.50;;;;;;4938264;29;20055;-81
2022/06/12 13:13:54;;;;;;;1.75;0.93;;;25.70;46.30;;;;;;4937502;29;20516;-81
2022/06/12 13:16:38;;;;;;;1.40;0.93;;;25.70;46.10;;;;;;4938475;29;20083;-80
2022/06/12 13:19:19;;;;;;;1.83;0.70;;;25.80;46.10;;;;;;4939823;29;20024;-80
2022/06/12 13:22:16;;;;;;;1.65;1.00;;;25.70;45.80;;;;;;4937970;29;20039;-80
2022/06/12 13:25:06;;;;;;;1.15;0.90;;;25.70;45.30;;;;;;4937778;29;20044;-80
2022/06/12 13:27:45;;;;;;;1.38;0.80;;;25.70;45.60;;;;;;4935233;29;20039;-79
2022/06/12 13:30:34;;;;;;;1.55;0.82;;;25.70;44.70;;;;;;4951375;29;20114;-80
2022/06/12 13:33:16;;;;;;;1.95;0.95;;;25.70;44.30;;;;;;4935923;29;20040;-79
2022/06/12 13:35:48;;;;;;;2.03;0.90;;;25.70;44.10;;;;;;4935365;29;20036;-80
2022/06/12 13:38:45;;;;;;;1.33;0.70;;;25.70;44.10;;;;;;4935416;29;20027;-80
2022/06/12 13:41:38;;;;;;;2.22;0.98;;;25.70;44.20;;;;;;4935894;29;20099;-80
2022/06/12 13:44:27;;;;;;;1.90;1.10;;;25.70;44.20;;;;;;4933236;29;20161;-80
2022/06/12 13:46:54;;;;;;;1.17;0.82;;;25.70;43.90;;;;;;4939314;29;20063;-79